createdAt,value
2022-11-24T00:01:17.908Z,81.60
2022-11-24T00:03:46.775Z,81.70
2022-11-24T00:06:16.060Z,81.90
2022-11-24T00:08:45.058Z,82.20
2022-11-24T00:11:17.498Z,82.40
2022-11-24T00:13:45.119Z,82.70
2022-11-24T00:16:18.360Z,82.70
2022-11-24T00:18:47.668Z,82.70
2022-11-24T00:21:16.256Z,82.50
2022-11-24T00:23:43.875Z,82.50
2022-11-24T00:26:16.523Z,82.40
2022-11-24T00:28:44.875Z,82.30
2022-11-24T00:31:17.494Z,82.40
2022-11-24T00:33:45.398Z,82.70
2022-11-24T00:36:13.020Z,83.00
2022-11-24T00:38:40.199Z,83.20
2022-11-24T00:41:07.257Z,83.20
2022-11-24T00:43:34.445Z,83.20
2022-11-24T00:46:02.048Z,83.20
2022-11-24T00:48:30.010Z,83.10
2022-11-24T00:50:57.552Z,83.20
2022-11-24T00:53:25.397Z,83.20
2022-11-24T00:55:53.035Z,83.30
2022-11-24T00:58:20.139Z,83.20
2022-11-24T01:00:47.185Z,83.20
2022-11-24T01:03:15.263Z,83.30
2022-11-24T01:05:42.404Z,83.30
2022-11-24T01:08:09.851Z,83.50
2022-11-24T01:10:36.900Z,83.20
2022-11-24T01:13:04.931Z,83.20
2022-11-24T01:15:34.819Z,83.20
2022-11-24T01:18:02.302Z,83.20
2022-11-24T01:20:29.287Z,83.20
2022-11-24T01:22:56.287Z,83.10
2022-11-24T01:25:23.263Z,83.10
2022-11-24T01:27:50.287Z,83.10
2022-11-24T01:30:17.578Z,83.10
2022-11-24T01:32:44.614Z,83.10
2022-11-24T01:35:11.578Z,82.90
2022-11-24T01:37:38.568Z,82.70
2022-11-24T01:40:06.259Z,82.70
2022-11-24T01:42:53.586Z,82.80
2022-11-24T01:45:35.103Z,83.10
2022-11-24T01:48:06.500Z,83.40
2022-11-24T01:50:35.619Z,83.60
2022-11-24T01:53:04.016Z,83.90
2022-11-24T01:55:36.593Z,84.00
2022-11-24T01:58:07.539Z,84.10
2022-11-24T02:00:38.163Z,84.00
2022-11-24T02:03:05.473Z,84.10
2022-11-24T02:05:41.494Z,84.00
2022-11-24T02:08:17.122Z,84.00
2022-11-24T02:10:45.532Z,84.00
2022-11-24T02:13:14.375Z,83.90
2022-11-24T02:15:42.150Z,83.90
2022-11-24T02:18:09.436Z,83.80
2022-11-24T02:20:36.659Z,83.70
2022-11-24T02:23:33.607Z,83.50
2022-11-24T02:26:16.018Z,83.50
2022-11-24T02:28:43.134Z,83.70
2022-11-24T02:31:10.675Z,83.80
2022-11-24T02:33:38.826Z,84.00
2022-11-24T02:36:06.235Z,84.70
2022-11-24T02:38:34.644Z,85.00
2022-11-24T02:41:07.454Z,85.40
2022-11-24T02:43:48.471Z,85.70
2022-11-24T02:46:15.514Z,85.80
2022-11-24T02:48:42.603Z,85.60
2022-11-24T02:51:09.733Z,85.70
2022-11-24T02:53:36.820Z,85.50
2022-11-24T02:56:03.943Z,85.30
2022-11-24T02:58:31.004Z,85.20
2022-11-24T03:00:59.794Z,85.10
2022-11-24T03:03:27.661Z,85.00
2022-11-24T03:05:54.663Z,85.10
2022-11-24T03:08:21.935Z,85.30
2022-11-24T03:10:49.314Z,85.60
2022-11-24T03:13:16.381Z,85.80
2022-11-24T03:15:43.394Z,86.10
2022-11-24T03:18:10.440Z,86.30
2022-11-24T03:20:37.559Z,86.30
2022-11-24T03:23:04.594Z,86.40
2022-11-24T03:25:31.611Z,86.50
2022-11-24T03:27:58.586Z,86.40
2022-11-24T03:30:26.391Z,86.60
2022-11-24T03:32:53.859Z,86.80
2022-11-24T03:35:22.115Z,87.10
2022-11-24T03:37:49.592Z,87.40
2022-11-24T03:40:18.139Z,87.70
2022-11-24T03:42:45.394Z,88.10
2022-11-24T03:48:00.346Z,88.50
2022-11-24T03:50:27.697Z,88.60
2022-11-24T03:52:55.038Z,88.50
2022-11-24T03:55:22.102Z,88.50
2022-11-24T03:57:49.220Z,88.50
2022-11-24T04:00:16.787Z,88.40
2022-11-24T04:02:43.810Z,88.20
2022-11-24T04:05:10.846Z,88.20
2022-11-24T04:07:37.885Z,88.20
2022-11-24T04:10:05.485Z,88.40
2022-11-24T04:12:44.648Z,88.40
2022-11-24T04:15:19.498Z,88.70
2022-11-24T04:17:48.274Z,89.00
2022-11-24T04:20:16.254Z,89.10
2022-11-24T04:22:43.737Z,89.10
2022-11-24T04:25:11.437Z,89.30
2022-11-24T04:27:39.080Z,89.40
2022-11-24T04:30:07.420Z,89.60
2022-11-24T04:32:34.413Z,89.70
2022-11-24T04:35:01.367Z,89.80
2022-11-24T04:37:28.490Z,90.00
2022-11-24T04:39:55.526Z,90.10
2022-11-24T04:42:22.553Z,90.10
2022-11-24T04:44:49.524Z,90.20
2022-11-24T04:47:23.828Z,90.30
2022-11-24T04:49:51.167Z,90.30
2022-11-24T04:52:19.619Z,90.40
2022-11-24T04:54:47.614Z,90.40
2022-11-24T04:57:25.486Z,90.50
2022-11-24T04:59:53.795Z,90.60
2022-11-24T05:02:21.336Z,91.00
2022-11-24T05:04:48.761Z,90.80
2022-11-24T05:07:18.980Z,90.80
2022-11-24T05:10:06.095Z,90.80
2022-11-24T05:12:33.645Z,90.70
2022-11-24T05:15:02.021Z,90.60
2022-11-24T05:17:31.472Z,90.70
2022-11-24T05:19:58.817Z,90.60
2022-11-24T05:22:26.997Z,90.40
2022-11-24T05:24:53.934Z,90.30
2022-11-24T05:27:21.362Z,90.30
2022-11-24T05:29:48.355Z,90.30
2022-11-24T05:32:15.493Z,90.30
2022-11-24T05:34:43.340Z,90.30
2022-11-24T05:37:10.376Z,90.40
2022-11-24T05:39:37.670Z,90.40
2022-11-24T05:42:25.131Z,90.40
2022-11-24T05:44:53.104Z,90.50
2022-11-24T05:47:20.723Z,90.60
2022-11-24T05:49:47.727Z,90.80
2022-11-24T05:52:15.054Z,90.90
2022-11-24T05:54:43.063Z,91.10
2022-11-24T05:57:10.340Z,91.30
2022-11-24T05:59:37.430Z,91.40
2022-11-24T06:02:04.647Z,91.50
2022-11-24T06:04:32.260Z,91.60
2022-11-24T06:06:59.522Z,91.80
2022-11-24T06:09:27.382Z,91.80
2022-11-24T06:11:55.145Z,91.90
2022-11-24T06:14:22.482Z,92.00
2022-11-24T06:16:49.463Z,92.00
2022-11-24T06:19:16.431Z,92.10
2022-11-24T06:21:43.397Z,92.10
2022-11-24T06:24:10.415Z,92.10
2022-11-24T06:26:37.357Z,92.10
2022-11-24T06:29:04.311Z,92.00
2022-11-24T06:31:31.364Z,91.90
2022-11-24T06:33:58.851Z,91.70
2022-11-24T06:36:25.858Z,91.70
2022-11-24T06:38:53.519Z,91.60
2022-11-24T06:41:20.586Z,91.50
2022-11-24T06:43:47.977Z,91.40
2022-11-24T06:46:15.765Z,91.30
2022-11-24T06:48:42.695Z,91.20
2022-11-24T06:51:13.034Z,91.10
2022-11-24T06:53:42.345Z,91.10
2022-11-24T06:56:16.119Z,91.40
2022-11-24T06:58:49.451Z,91.10
2022-11-24T07:01:22.751Z,91.20
2022-11-24T07:03:50.150Z,91.30
2022-11-24T07:06:19.367Z,91.20
2022-11-24T07:08:47.208Z,91.20
2022-11-24T07:11:16.810Z,91.10
2022-11-24T07:13:44.947Z,91.20
2022-11-24T07:16:17.368Z,91.50
2022-11-24T07:18:45.739Z,90.40
2022-11-24T07:21:13.089Z,87.00
2022-11-24T07:23:40.461Z,82.90
2022-11-24T07:26:09.089Z,79.60
2022-11-24T07:28:37.239Z,76.40
2022-11-24T07:31:08.703Z,71.90
2022-11-24T07:33:36.166Z,68.20
2022-11-24T07:36:04.119Z,64.80
2022-11-24T07:38:32.317Z,60.40
2022-11-24T07:41:07.464Z,58.60
2022-11-24T07:43:36.130Z,57.40
2022-11-24T07:46:04.362Z,55.50
2022-11-24T07:48:32.072Z,53.50
2022-11-24T07:51:04.312Z,51.40
2022-11-24T07:53:32.093Z,48.50
2022-11-24T07:56:01.159Z,47.80
2022-11-24T07:58:32.734Z,47.00
2022-11-24T08:01:08.246Z,45.90
2022-11-24T08:03:35.947Z,44.70
2022-11-24T08:08:50.111Z,43.60
2022-11-24T08:11:18.171Z,43.10
2022-11-24T08:13:45.564Z,43.50
2022-11-24T08:16:15.188Z,44.70
2022-11-24T08:18:42.976Z,44.20
2022-11-24T08:21:14.737Z,43.90
2022-11-24T08:23:42.896Z,43.90
2022-11-24T08:26:15.926Z,45.00
2022-11-24T08:28:43.409Z,46.60
2022-11-24T08:31:13.618Z,47.50
2022-11-24T08:33:41.231Z,48.00
2022-11-24T08:36:11.376Z,49.10
2022-11-24T08:38:39.053Z,49.50
2022-11-24T08:41:09.098Z,49.40
2022-11-24T08:43:36.501Z,50.30
2022-11-24T08:46:06.382Z,51.20
2022-11-24T08:48:34.313Z,52.10
2022-11-24T08:51:08.536Z,52.50
2022-11-24T08:53:36.188Z,52.30
2022-11-24T08:56:06.175Z,52.30
2022-11-24T08:58:33.761Z,51.70
2022-11-24T09:01:06.424Z,51.50
2022-11-24T09:03:34.616Z,51.90
2022-11-24T09:06:02.467Z,52.10
2022-11-24T09:08:30.756Z,52.20
2022-11-24T09:11:05.508Z,52.00
2022-11-24T09:13:32.980Z,51.30
2022-11-24T09:16:08.250Z,50.70
2022-11-24T09:18:35.696Z,50.60
2022-11-24T09:21:11.610Z,50.80
2022-11-24T09:23:38.995Z,50.70
2022-11-24T09:26:18.137Z,49.90
2022-11-24T09:28:45.947Z,49.40
2022-11-24T09:31:15.774Z,49.30
2022-11-24T09:33:43.525Z,49.10
2022-11-24T09:36:10.530Z,48.50
2022-11-24T09:38:38.049Z,47.40
2022-11-24T09:41:26.547Z,47.10
2022-11-24T09:44:25.482Z,45.50
2022-11-24T09:46:55.108Z,43.50
2022-11-24T09:49:39.203Z,43.50
2022-11-24T09:52:09.914Z,41.90
2022-11-24T09:54:37.755Z,40.90
2022-11-24T09:57:07.370Z,40.10
2022-11-24T09:59:34.538Z,38.90
2022-11-24T10:02:01.779Z,38.40
2022-11-24T10:04:34.043Z,37.50
2022-11-24T10:07:12.772Z,36.50
2022-11-24T10:10:12.927Z,36.00
2022-11-24T10:12:45.896Z,36.20
2022-11-24T10:15:25.754Z,36.10
2022-11-24T10:18:16.468Z,35.30
2022-11-24T10:21:19.553Z,34.70
2022-11-24T10:23:55.488Z,34.10
2022-11-24T10:26:32.201Z,33.20
2022-11-24T10:28:59.048Z,31.70
2022-11-24T10:31:34.931Z,32.00
2022-11-24T10:34:03.720Z,31.10
2022-11-24T10:36:42.852Z,30.90
2022-11-24T10:39:13.558Z,30.70
2022-11-24T10:41:51.811Z,30.30
2022-11-24T10:44:18.878Z,30.10
2022-11-24T10:46:46.082Z,30.50
2022-11-24T10:49:28.218Z,30.60
2022-11-24T10:51:55.026Z,31.00
2022-11-24T10:54:23.001Z,31.10
2022-11-24T10:56:54.149Z,31.30
2022-11-24T10:59:29.580Z,32.50
2022-11-24T11:01:56.911Z,32.70
2022-11-24T11:04:32.827Z,33.20
2022-11-24T11:07:21.499Z,33.40
2022-11-24T11:09:49.429Z,33.40
2022-11-24T11:12:43.516Z,33.70
2022-11-24T11:15:24.738Z,33.80
2022-11-24T11:17:54.553Z,34.50
2022-11-24T11:20:25.874Z,35.30
2022-11-24T11:22:53.677Z,35.60
2022-11-24T11:25:22.419Z,35.30
2022-11-24T11:27:49.473Z,35.20
2022-11-24T11:36:09.123Z,34.90
2022-11-24T11:38:38.116Z,34.40
2022-11-24T11:41:05.901Z,34.20
2022-11-24T11:43:36.014Z,34.10
2022-11-24T11:46:11.745Z,33.70
2022-11-24T11:48:43.497Z,33.70
2022-11-24T11:51:31.076Z,33.60
2022-11-24T11:54:16.710Z,33.50
2022-11-24T11:56:47.253Z,33.30
2022-11-24T11:59:23.113Z,33.00
2022-11-24T12:02:01.943Z,32.80
2022-11-24T12:04:34.890Z,32.70
2022-11-24T12:07:01.858Z,33.30
2022-11-24T12:09:31.636Z,33.10
2022-11-24T12:12:10.812Z,33.50
2022-11-24T12:14:47.072Z,33.90
2022-11-24T12:17:34.803Z,33.80
2022-11-24T12:20:20.214Z,33.60
2022-11-24T12:22:52.754Z,33.90
2022-11-24T12:25:39.840Z,34.00
2022-11-24T12:28:17.638Z,34.60
2022-11-24T12:30:58.241Z,34.90
2022-11-24T12:33:28.154Z,35.00
2022-11-24T12:36:24.306Z,34.90
2022-11-24T12:38:51.253Z,34.90
2022-11-24T12:41:43.711Z,35.30
2022-11-24T12:44:22.647Z,36.10
2022-11-24T12:46:58.773Z,36.10
2022-11-24T12:49:44.412Z,36.00
2022-11-24T12:52:23.255Z,35.80
2022-11-24T12:54:50.053Z,35.90
2022-11-24T12:57:40.130Z,36.10
2022-11-24T13:00:08.337Z,36.80
2022-11-24T13:02:47.170Z,36.70
2022-11-24T13:05:14.139Z,37.00
2022-11-24T13:07:48.544Z,37.40
2022-11-24T13:10:40.413Z,37.40
2022-11-24T13:13:12.267Z,37.70
2022-11-24T13:16:28.557Z,37.80
2022-11-24T13:18:53.384Z,38.00
2022-11-24T13:21:50.279Z,38.80
2022-11-24T13:24:18.023Z,39.00
2022-11-24T13:26:48.650Z,39.30
2022-11-24T13:29:30.506Z,40.10
2022-11-24T13:32:06.261Z,40.60
2022-11-24T13:34:42.922Z,40.70
2022-11-24T13:37:33.912Z,41.10
2022-11-24T13:40:14.177Z,41.30
2022-11-24T13:42:56.486Z,41.60
2022-11-24T13:45:41.950Z,40.90
2022-11-24T13:48:21.920Z,40.40
2022-11-24T13:50:58.439Z,40.30
2022-11-24T13:53:47.629Z,40.40
2022-11-24T13:56:15.098Z,40.00
2022-11-24T13:58:52.976Z,40.30
2022-11-24T14:01:32.706Z,40.90
2022-11-24T14:04:33.722Z,41.00
2022-11-24T14:07:09.487Z,41.90
2022-11-24T14:09:45.592Z,43.10
2022-11-24T14:12:21.243Z,43.80
2022-11-24T14:14:50.002Z,44.80
2022-11-24T14:17:23.228Z,45.90
2022-11-24T14:19:52.978Z,46.80
2022-11-24T14:22:40.146Z,47.70
2022-11-24T14:25:32.764Z,48.40
2022-11-24T14:28:00.896Z,49.30
2022-11-24T14:30:27.906Z,50.10
2022-11-24T14:33:03.349Z,51.00
2022-11-24T14:35:32.985Z,52.70
2022-11-24T14:38:05.833Z,53.90
2022-11-24T14:40:50.460Z,55.50
2022-11-24T14:43:17.339Z,57.00
2022-11-24T14:46:02.745Z,57.90
2022-11-24T14:48:46.893Z,59.80
2022-11-24T14:51:24.924Z,61.10
2022-11-24T14:53:55.510Z,62.30
2022-11-24T14:56:35.817Z,63.00
2022-11-24T14:59:03.838Z,64.80
2022-11-24T15:01:34.503Z,64.90
2022-11-24T15:04:54.563Z,66.10
2022-11-24T15:07:21.759Z,67.70
2022-11-24T15:09:50.774Z,67.90
2022-11-24T15:12:34.524Z,68.60
2022-11-24T15:15:16.238Z,69.80
2022-11-24T15:18:00.078Z,70.60
2022-11-24T15:20:27.214Z,71.60
2022-11-24T15:23:20.692Z,70.80
2022-11-24T15:25:48.341Z,72.30
2022-11-24T15:28:15.333Z,72.10
2022-11-24T15:30:42.524Z,73.10
2022-11-24T15:33:18.392Z,73.80
2022-11-24T15:35:45.979Z,74.50
2022-11-24T15:38:14.017Z,74.70
2022-11-24T15:40:44.027Z,75.20
2022-11-24T15:43:29.560Z,75.80
2022-11-24T15:45:57.052Z,76.80
2022-11-24T15:48:24.106Z,76.50
2022-11-24T15:50:52.295Z,77.00
2022-11-24T15:53:28.114Z,77.40
2022-11-24T15:55:57.119Z,78.00
2022-11-24T15:58:24.395Z,78.20
2022-11-24T16:00:53.597Z,78.70
2022-11-24T16:06:16.724Z,79.90
2022-11-24T16:08:46.764Z,80.90
2022-11-24T16:11:13.969Z,81.20
2022-11-24T16:13:41.057Z,81.30
2022-11-24T16:16:09.611Z,81.50
2022-11-24T16:18:47.370Z,81.90
2022-11-24T16:21:25.969Z,82.20
2022-11-24T16:23:53.937Z,82.70
2022-11-24T16:26:21.353Z,82.80
2022-11-24T16:28:48.658Z,83.10
2022-11-24T16:31:16.356Z,83.40
2022-11-24T16:33:44.904Z,83.60
2022-11-24T16:36:12.860Z,83.70
2022-11-24T16:38:39.897Z,83.80
2022-11-24T16:41:07.381Z,83.90
2022-11-24T16:43:34.325Z,83.90
2022-11-24T16:46:23.097Z,84.00
2022-11-24T16:48:53.096Z,84.40
2022-11-24T16:51:21.733Z,84.30
2022-11-24T16:53:56.158Z,84.70
2022-11-24T16:56:23.079Z,84.90
2022-11-24T16:58:50.044Z,85.50
2022-11-24T17:01:17.026Z,85.90
2022-11-24T17:03:43.998Z,86.30
2022-11-24T17:06:13.330Z,86.80
2022-11-24T17:08:41.273Z,87.40
2022-11-24T17:11:19.713Z,87.40
2022-11-24T17:13:47.579Z,88.00
2022-11-24T17:16:17.261Z,88.00
2022-11-24T17:18:45.419Z,88.20
2022-11-24T17:21:17.849Z,88.40
2022-11-24T17:23:44.908Z,88.50
2022-11-24T17:26:15.245Z,88.40
2022-11-24T17:28:42.989Z,88.60
2022-11-24T17:31:19.983Z,88.60
2022-11-24T17:33:46.990Z,88.80
2022-11-24T17:36:14.043Z,89.00
2022-11-24T17:38:40.999Z,89.30
2022-11-24T17:41:08.553Z,89.30
2022-11-24T17:43:35.587Z,89.50
2022-11-24T17:46:04.682Z,89.50
2022-11-24T17:48:32.226Z,89.60
2022-11-24T17:51:00.095Z,89.50
2022-11-24T17:53:27.602Z,89.40
2022-11-24T17:55:54.657Z,89.50
2022-11-24T17:58:21.577Z,89.60
2022-11-24T18:00:50.341Z,89.80
2022-11-24T18:03:17.295Z,89.90
2022-11-24T18:05:44.275Z,89.90
2022-11-24T18:08:12.119Z,89.80
2022-11-24T18:10:39.266Z,89.40
2022-11-24T18:13:06.544Z,89.30
2022-11-24T18:15:34.862Z,89.40
2022-11-24T18:18:02.614Z,89.30
2022-11-24T18:20:29.834Z,89.20
2022-11-24T18:23:05.576Z,88.90
2022-11-24T18:25:37.195Z,88.70
2022-11-24T18:28:04.438Z,88.40
2022-11-24T18:30:31.462Z,88.10
2022-11-24T18:32:58.883Z,87.80
2022-11-24T18:35:25.811Z,87.70
2022-11-24T18:37:53.358Z,87.30
2022-11-24T18:40:20.271Z,87.10
2022-11-24T18:42:47.187Z,86.90
2022-11-24T18:45:14.112Z,86.80
2022-11-24T18:47:41.028Z,86.70
2022-11-24T18:50:08.613Z,86.60
2022-11-24T18:52:35.515Z,86.50
2022-11-24T18:55:04.032Z,86.40
2022-11-24T18:57:31.665Z,86.40
2022-11-24T18:59:59.040Z,86.30
2022-11-24T19:02:26.084Z,86.30
2022-11-24T19:04:53.181Z,86.30
2022-11-24T19:07:20.492Z,86.50
2022-11-24T19:09:47.722Z,86.70
2022-11-24T19:12:14.694Z,86.80
2022-11-24T19:14:41.668Z,87.00
2022-11-24T19:17:08.657Z,87.10
2022-11-24T19:19:35.989Z,87.20
2022-11-24T19:22:03.806Z,87.30
2022-11-24T19:24:30.813Z,87.20
2022-11-24T19:26:58.006Z,87.20
2022-11-24T19:29:24.878Z,87.10
2022-11-24T19:31:54.150Z,87.10
2022-11-24T19:34:21.096Z,87.10
2022-11-24T19:36:48.212Z,87.00
2022-11-24T19:39:16.582Z,87.00
2022-11-24T19:41:43.553Z,86.90
2022-11-24T19:44:13.678Z,86.70
2022-11-24T19:46:40.881Z,86.70
2022-11-24T19:49:08.907Z,86.70
2022-11-24T19:51:38.514Z,86.70
2022-11-24T19:54:08.393Z,86.80
2022-11-24T19:56:36.761Z,86.90
2022-11-24T19:59:05.998Z,86.80
2022-11-24T20:01:40.676Z,86.70
2022-11-24T20:04:13.635Z,86.50
2022-11-24T20:06:43.547Z,86.40
2022-11-24T20:09:13.263Z,86.90
2022-11-24T20:11:40.878Z,86.00
2022-11-24T20:14:14.439Z,85.60
2022-11-24T20:16:41.984Z,85.40
2022-11-24T20:19:12.455Z,85.10
2022-11-24T20:21:41.741Z,84.90
2022-11-24T20:24:12.487Z,84.80
2022-11-24T20:26:42.829Z,84.80
2022-11-24T20:29:12.202Z,84.80
2022-11-24T20:31:42.926Z,84.70
2022-11-24T20:34:10.094Z,84.70
2022-11-24T20:36:39.968Z,84.70
2022-11-24T20:39:16.410Z,84.70
2022-11-24T20:41:44.515Z,84.70
2022-11-24T20:44:15.241Z,84.90
2022-11-24T20:46:44.651Z,85.10
2022-11-24T20:49:14.920Z,85.30
2022-11-24T20:51:44.376Z,85.30
2022-11-24T20:54:15.380Z,85.30
2022-11-24T20:56:44.664Z,85.20
2022-11-24T20:59:14.718Z,85.20
2022-11-24T21:01:45.762Z,85.20
2022-11-24T21:04:17.531Z,85.10
2022-11-24T21:06:44.771Z,85.00
2022-11-24T21:09:12.020Z,84.80
2022-11-24T21:11:39.757Z,84.60
2022-11-24T21:14:08.025Z,84.40
2022-11-24T21:16:37.615Z,84.20
2022-11-24T21:19:11.631Z,84.00
2022-11-24T21:21:39.891Z,83.80
2022-11-24T21:24:11.890Z,83.60
2022-11-24T21:26:39.990Z,83.30
2022-11-24T21:29:07.793Z,83.10
2022-11-24T21:31:37.366Z,82.80
2022-11-24T21:34:16.739Z,82.40
2022-11-24T21:36:45.242Z,82.60
2022-11-24T21:39:13.970Z,81.60
2022-11-24T21:41:41.850Z,81.40
2022-11-24T21:44:10.534Z,81.50
2022-11-24T21:46:43.623Z,81.70
2022-11-24T21:49:13.779Z,81.90
2022-11-24T21:51:41.248Z,82.10
2022-11-24T21:54:09.217Z,82.20
2022-11-24T21:56:36.323Z,82.50
2022-11-24T21:59:03.889Z,82.60
2022-11-24T22:01:31.450Z,82.80
2022-11-24T22:03:58.583Z,82.80
2022-11-24T22:06:25.612Z,83.00
2022-11-24T22:08:52.858Z,83.10
2022-11-24T22:11:22.883Z,83.20
2022-11-24T22:13:51.231Z,83.30
2022-11-24T22:16:24.044Z,84.20
2022-11-24T22:18:51.870Z,83.60
2022-11-24T22:21:24.394Z,83.70
2022-11-24T22:23:55.636Z,83.80
2022-11-24T22:26:23.958Z,83.90
2022-11-24T22:28:51.907Z,83.80
2022-11-24T22:31:23.214Z,83.60
2022-11-24T22:33:51.116Z,83.30
2022-11-24T22:36:22.869Z,83.80
2022-11-24T22:39:04.218Z,82.80
2022-11-24T22:41:34.119Z,82.50
2022-11-24T22:44:01.111Z,82.40
2022-11-24T22:46:30.110Z,82.40
2022-11-24T22:48:59.813Z,82.40
2022-11-24T22:51:29.660Z,82.10
2022-11-24T22:53:58.812Z,82.00
2022-11-24T22:56:28.014Z,81.80
2022-11-24T22:58:55.380Z,81.70
2022-11-24T23:01:24.988Z,81.70
2022-11-24T23:03:54.469Z,81.60
2022-11-24T23:06:30.054Z,81.40
2022-11-24T23:08:58.482Z,81.30
2022-11-24T23:11:38.213Z,81.20
2022-11-24T23:14:07.867Z,81.00
2022-11-24T23:16:34.895Z,81.00
2022-11-24T23:19:01.910Z,81.00
2022-11-24T23:21:31.286Z,81.50
2022-11-24T23:24:00.204Z,82.20
2022-11-24T23:26:30.735Z,82.40
2022-11-24T23:28:57.687Z,82.50
2022-11-24T23:31:29.643Z,82.50
2022-11-24T23:33:58.147Z,82.70
2022-11-24T23:36:26.033Z,82.80
2022-11-24T23:38:53.111Z,83.00
2022-11-24T23:41:25.282Z,83.00
2022-11-24T23:43:52.643Z,83.10
2022-11-24T23:46:22.312Z,83.10
2022-11-24T23:48:50.631Z,83.10
2022-11-24T23:51:24.603Z,82.90
2022-11-24T23:53:52.159Z,82.70
2022-11-24T23:56:21.729Z,82.40
2022-11-24T23:58:49.050Z,82.30
